MiSS Kayla — WDF5910 — position and weather

sailwx.info

Track history (hours):
 
Tides and Currents Weather Stations Pressure Air Temp Water Temp Dewpoint Dewpoint Depression Visibility Wind Speed Wind Dir Waves Ship Positions

MiSS Kayla

Owner: Crosby Marine Transportation LLC, Golden Meadow, LA. More information available from US FCC via Universal Licensing System and Coast Guard Vessel Documentation Center.

Last reported at 2017-Oct-12 15:35 UTC. Time now 2017-Oct-18 23:40 UTC.
Position N 29°30' W 094°53'.

Length 20 m; draft 8 m.

Type: Towing. MMSI: 367468580.

Date/timePositionNaut miles runAvg speedWind from/ knotsBaromVisibWave heightAir tempDewpointWater temp
2017-Oct-12 15:35N 29°30' W 094°53'1 6.9
2017-Oct-12 15:30N 29°31' W 094°53'3 6.7
2017-Oct-12 15:00N 29°34' W 094°55'3 6.6
2017-Oct-12 14:30N 29°36' W 094°57'3 6.2
2017-Oct-12 14:00N 29°39' W 094°58'3 5.2
2017-Oct-12 13:30N 29°42' W 094°60'3 5.6
2017-Oct-12 12:54N 29°44' W 095°03'  
2017-Oct-07 06:51N 29°46' W 095°05'2 4.9
2017-Oct-07 06:22N 29°44' W 095°03'2 5.0
2017-Oct-07 05:52N 29°43' W 095°01'2 5.1
2017-Oct-07 05:30N 29°42' W 094°59'3 5.7
2017-Oct-07 05:00N 29°39' W 094°58'3 5.9
2017-Oct-07 04:30N 29°36' W 094°57'  
Track history (hours):
 
Tides and Currents Weather Stations Pressure Air Temp Water Temp Dewpoint Dewpoint Depression Visibility Wind Speed Wind Dir Waves Ship Positions

MiSS Kayla

Owner: Crosby Marine Transportation LLC, Golden Meadow, LA. More information available from US FCC via Universal Licensing System and Coast Guard Vessel Documentation Center.

Last reported at 2017-Oct-12 15:35 UTC. Time now 2017-Oct-18 23:40 UTC.
Position N 29°30' W 094°53'.

Length 20 m; draft 8 m.

Type: Towing. MMSI: 367468580.

Date/timePositionNaut miles runAvg speedWind from/ knotsBaromVisibWave heightAir tempDewpointWater temp
2017-Oct-12 15:35N 29°30' W 094°53'1 6.9
2017-Oct-12 15:30N 29°31' W 094°53'3 6.7
2017-Oct-12 15:00N 29°34' W 094°55'3 6.6
2017-Oct-12 14:30N 29°36' W 094°57'3 6.2
2017-Oct-12 14:00N 29°39' W 094°58'3 5.2
2017-Oct-12 13:30N 29°42' W 094°60'3 5.6
2017-Oct-12 12:54N 29°44' W 095°03'  
2017-Oct-07 06:51N 29°46' W 095°05'2 4.9
2017-Oct-07 06:22N 29°44' W 095°03'2 5.0
2017-Oct-07 05:52N 29°43' W 095°01'2 5.1
2017-Oct-07 05:30N 29°42' W 094°59'3 5.7
2017-Oct-07 05:00N 29°39' W 094°58'3 5.9
2017-Oct-07 04:30N 29°36' W 094°57'  

Dump ship's entire track history